Time;durP1;ratioP1;P1;durP2;ratioP2;P2;SDS_P1;SDS_P2;PMS_P1;PMS_P2;Temp;Humidity;BMP_temperature;BMP_pressure;BME280_temperature;BME280_humidity;BME280_pressure;Samples;Min_cycle;Max_cycle;Signal;HPM_P1;HPM_P2
2024/02/09 00:02:07;;;;;;;1.55;1.30;;;15.90;57.40;;;;;;5073277;28;20686;-69
2024/02/09 00:04:38;;;;;;;3.05;1.50;;;15.90;57.50;;;;;;5072177;28;20213;-71
2024/02/09 00:07:04;;;;;;;1.60;1.50;;;15.90;57.50;;;;;;5059189;28;20544;-70
2024/02/09 00:09:29;;;;;;;1.50;1.40;;;15.80;57.40;;;;;;5052642;28;20660;-70
2024/02/09 00:11:55;;;;;;;1.50;1.40;;;15.80;57.50;;;;;;5052566;28;20179;-70
2024/02/09 00:14:20;;;;;;;1.42;1.33;;;15.80;57.50;;;;;;5052641;28;20182;-70
2024/02/09 00:16:46;;;;;;;1.65;1.55;;;15.80;58.10;;;;;;5052834;28;20217;-70
2024/02/09 00:19:12;;;;;;;1.80;1.40;;;15.80;57.50;;;;;;5051968;28;20198;-69
2024/02/09 00:21:37;;;;;;;1.60;1.40;;;15.70;57.50;;;;;;5052435;28;20191;-70
2024/02/09 00:24:03;;;;;;;1.30;1.30;;;15.70;57.50;;;;;;5052670;28;20297;-69
2024/02/09 00:26:29;;;;;;;1.55;1.45;;;15.70;57.50;;;;;;5051980;28;20660;-69
2024/02/09 00:28:54;;;;;;;1.50;1.40;;;15.70;57.50;;;;;;5052615;28;20236;-69
2024/02/09 00:31:22;;;;;;;1.60;1.50;;;15.70;57.50;;;;;;5052470;28;20186;-69
2024/02/09 00:33:48;;;;;;;1.13;1.10;;;15.70;57.50;;;;;;5051959;28;20317;-69
2024/02/09 00:36:14;;;;;;;1.83;1.30;;;15.70;57.50;;;;;;5052291;28;20286;-69
2024/02/09 00:38:40;;;;;;;1.23;1.20;;;15.70;57.50;;;;;;5051088;28;20298;-71
2024/02/09 00:41:07;;;;;;;1.42;1.33;;;15.70;57.50;;;;;;5051760;28;20689;-69
2024/02/09 00:43:33;;;;;;;1.98;1.15;;;15.70;57.50;;;;;;5052305;28;20261;-69
2024/02/09 00:46:00;;;;;;;1.60;1.50;;;15.60;57.50;;;;;;5051653;28;20324;-69
2024/02/09 00:48:26;;;;;;;1.40;1.30;;;15.60;57.60;;;;;;5050916;28;20178;-69
2024/02/09 00:50:52;;;;;;;1.63;1.52;;;15.60;57.50;;;;;;5052473;28;20560;-69
2024/02/09 00:53:17;;;;;;;1.25;1.17;;;15.60;57.50;;;;;;5051489;28;20954;-69
2024/02/09 00:55:43;;;;;;;1.30;1.20;;;15.60;57.60;;;;;;5052489;28;20772;-69
2024/02/09 00:58:08;;;;;;;1.30;1.25;;;15.60;57.60;;;;;;5051936;28;20231;-69
2024/02/09 01:00:34;;;;;;;1.35;1.25;;;15.60;57.60;;;;;;5051271;28;20265;-69
2024/02/09 01:03:02;;;;;;;1.27;1.23;;;15.60;57.60;;;;;;5052397;28;20232;-70
2024/02/09 01:05:28;;;;;;;1.45;1.35;;;15.60;57.60;;;;;;5051828;28;20175;-70
2024/02/09 01:07:53;;;;;;;2.10;1.60;;;15.50;57.60;;;;;;5051164;28;20183;-70
2024/02/09 01:10:19;;;;;;;1.80;1.40;;;15.50;57.60;;;;;;5051803;28;20273;-69
2024/02/09 02:45:48;;;;;;;1.35;1.13;;;15.40;58.10;;;;;;5054053;28;20168;-69
2024/02/09 03:04:38;;;;;;;1.02;1.02;;;15.40;58.10;;;;;;5054195;28;20190;-70
2024/02/09 03:07:03;;;;;;;2.72;1.27;;;15.30;58.10;;;;;;5053792;28;20175;-71
2024/02/09 03:09:29;;;;;;;1.10;1.00;;;15.30;58.10;;;;;;5054013;28;20189;-70
2024/02/09 03:11:57;;;;;;;1.00;1.00;;;15.30;58.10;;;;;;5054290;28;20240;-69
2024/02/09 03:14:27;;;;;;;1.77;1.30;;;15.30;58.10;;;;;;5053159;28;20179;-69
2024/02/09 03:16:54;;;;;;;1.17;1.08;;;15.30;58.20;;;;;;5053958;28;20225;-69
2024/02/09 03:19:20;;;;;;;1.63;1.20;;;15.30;58.20;;;;;;5054032;28;20176;-69
2024/02/09 03:21:46;;;;;;;1.52;1.30;;;15.30;58.20;;;;;;5053462;28;20201;-69
2024/02/09 03:24:11;;;;;;;1.73;1.60;;;15.30;58.20;;;;;;5054000;28;20171;-69
2024/02/09 03:26:37;;;;;;;2.42;1.40;;;15.30;58.20;;;;;;5053736;28;20175;-70
2024/02/09 03:29:02;;;;;;;1.95;1.30;;;15.30;58.30;;;;;;5053256;28;20167;-69
2024/02/09 03:31:31;;;;;;;2.08;1.30;;;15.30;58.30;;;;;;5053419;28;20214;-69
2024/02/09 03:33:57;;;;;;;1.55;1.20;;;15.30;58.30;;;;;;5053927;28;20182;-69
2024/02/09 03:36:23;;;;;;;1.27;1.17;;;15.30;58.40;;;;;;5052860;28;20210;-70
2024/02/09 03:38:48;;;;;;;1.17;1.00;;;15.20;58.20;;;;;;5053668;28;20395;-70
2024/02/09 03:41:14;;;;;;;1.90;1.40;;;15.20;58.20;;;;;;5053486;28;20186;-70
2024/02/09 03:43:39;;;;;;;2.65;1.15;;;15.30;58.30;;;;;;5052574;28;20699;-69
2024/02/09 03:46:05;;;;;;;1.60;1.27;;;15.20;58.30;;;;;;5053433;28;20630;-69
2024/02/09 03:48:31;;;;;;;1.30;1.20;;;15.20;58.30;;;;;;5053401;28;20967;-69
2024/02/09 03:50:57;;;;;;;1.60;1.33;;;15.20;58.30;;;;;;5052711;28;20236;-69
2024/02/09 03:53:22;;;;;;;1.40;1.20;;;15.20;58.30;;;;;;5053056;28;20258;-69
2024/02/09 03:55:48;;;;;;;1.17;1.10;;;15.20;58.30;;;;;;5052849;28;20289;-70
2024/02/09 03:58:13;;;;;;;1.23;1.17;;;15.20;58.30;;;;;;5052942;28;20361;-69
2024/02/09 04:00:39;;;;;;;2.03;1.23;;;15.20;58.40;;;;;;5052888;28;20206;-69
2024/02/09 04:03:05;;;;;;;1.33;1.23;;;15.20;58.40;;;;;;5052755;28;20251;-70
2024/02/09 04:05:33;;;;;;;1.95;1.40;;;15.20;58.40;;;;;;5053002;28;20202;-70
2024/02/09 04:07:59;;;;;;;3.00;1.40;;;15.20;58.40;;;;;;5052876;28;20236;-70
2024/02/09 04:10:24;;;;;;;1.52;1.42;;;15.20;58.40;;;;;;5052207;28;20246;-70
2024/02/09 04:12:50;;;;;;;1.30;1.20;;;15.20;58.40;;;;;;5052872;28;20581;-70
2024/02/09 04:15:15;;;;;;;1.65;1.55;;;15.20;58.40;;;;;;5052948;28;20749;-69
2024/02/09 04:17:43;;;;;;;1.50;1.33;;;15.20;58.40;;;;;;5051852;28;20645;-69
2024/02/09 04:20:11;;;;;;;1.13;1.00;;;15.20;58.40;;;;;;5053059;28;20269;-69
2024/02/09 04:22:36;;;;;;;1.38;1.27;;;15.20;58.40;;;;;;5052410;28;20721;-69
2024/02/09 04:25:03;;;;;;;1.40;1.10;;;15.20;58.40;;;;;;5052042;28;20179;-69
2024/02/09 04:27:29;;;;;;;2.00;1.27;;;15.20;58.50;;;;;;5052418;28;20194;-69
2024/02/09 04:29:54;;;;;;;2.80;1.30;;;15.20;58.50;;;;;;5052747;28;20709;-69
2024/02/09 04:32:20;;;;;;;2.08;1.35;;;15.20;58.50;;;;;;5051820;28;20182;-69
2024/02/09 04:34:46;;;;;;;1.88;1.45;;;15.20;58.50;;;;;;5052780;28;20266;-69
2024/02/09 04:37:12;;;;;;;1.00;1.00;;;15.10;58.50;;;;;;5052356;28;20305;-69
2024/02/09 04:39:37;;;;;;;2.00;1.30;;;15.20;58.50;;;;;;5051676;28;20183;-69
2024/02/09 04:42:03;;;;;;;1.30;1.20;;;15.20;58.50;;;;;;5052358;28;20172;-70
2024/02/09 04:44:28;;;;;;;1.35;1.25;;;15.10;58.50;;;;;;5052119;28;20175;-69
2024/02/09 04:46:54;;;;;;;1.85;1.20;;;15.10;58.50;;;;;;5051851;28;20170;-69
2024/02/09 04:49:20;;;;;;;1.98;1.08;;;15.10;58.50;;;;;;5052082;28;20266;-68
2024/02/09 04:51:46;;;;;;;1.95;1.17;;;15.10;58.50;;;;;;5052522;28;20171;-69
2024/02/09 04:54:12;;;;;;;1.23;1.10;;;15.10;58.60;;;;;;5051497;28;20186;-69
2024/02/09 04:56:38;;;;;;;1.20;1.10;;;15.10;58.60;;;;;;5051712;28;20211;-68
2024/02/09 04:59:09;;;;;;;1.70;1.23;;;15.10;58.60;;;;;;5052437;28;20242;-69
2024/02/09 05:01:38;;;;;;;1.35;1.20;;;15.10;58.60;;;;;;5051948;28;20757;-69
2024/02/09 05:04:06;;;;;;;1.20;1.10;;;15.10;58.60;;;;;;5052181;28;20216;-70
2024/02/09 05:06:31;;;;;;;1.35;1.20;;;15.10;58.60;;;;;;5051235;28;20202;-70
2024/02/09 05:08:57;;;;;;;3.38;1.45;;;15.10;58.60;;;;;;5052259;28;20203;-70
2024/02/09 05:11:29;;;;;;;1.30;1.20;;;15.10;58.60;;;;;;5051823;28;20181;-69
2024/02/09 05:13:55;;;;;;;1.10;1.00;;;15.10;58.60;;;;;;5051764;28;20186;-69
2024/02/09 05:16:21;;;;;;;1.55;1.10;;;15.10;58.60;;;;;;5052098;28;20215;-69
2024/02/09 05:18:47;;;;;;;1.52;1.08;;;15.10;58.60;;;;;;5051340;28;20262;-70
2024/02/09 05:21:12;;;;;;;1.27;1.10;;;15.10;58.70;;;;;;5051124;28;20626;-69
2024/02/09 05:23:41;;;;;;;2.60;1.00;;;15.10;58.70;;;;;;5051698;28;20183;-70
2024/02/09 05:26:07;;;;;;;1.00;0.90;;;15.10;58.70;;;;;;5051866;28;20179;-69
2024/02/09 05:28:39;;;;;;;1.50;1.20;;;15.10;58.70;;;;;;5050916;28;20179;-69
2024/02/09 05:31:22;;;;;;;2.40;1.42;;;15.10;58.70;;;;;;5052177;28;20175;-69
2024/02/09 05:33:48;;;;;;;2.78;1.27;;;15.00;59.30;;;;;;5051978;28;20186;-69
2024/02/09 05:36:35;;;;;;;1.20;1.10;;;15.10;58.70;;;;;;5050816;28;20272;-69
2024/02/09 05:39:01;;;;;;;1.15;1.05;;;15.00;58.70;;;;;;5052073;28;20300;-70
2024/02/09 05:41:27;;;;;;;1.73;1.27;;;15.00;58.70;;;;;;5050961;28;20171;-69
2024/02/09 05:43:52;;;;;;;1.05;0.95;;;15.00;58.70;;;;;;5051923;28;20314;-69
2024/02/09 05:46:18;;;;;;;1.25;1.15;;;15.00;58.70;;;;;;5051491;28;20703;-69
2024/02/09 05:48:49;;;;;;;1.90;1.20;;;15.00;58.80;;;;;;5050886;28;20179;-69
2024/02/09 05:51:17;;;;;;;1.65;1.27;;;15.00;58.70;;;;;;5051953;28;20345;-69
2024/02/09 05:53:43;;;;;;;3.63;1.52;;;15.00;58.70;;;;;;5051434;28;20670;-68
2024/02/09 05:56:21;;;;;;;1.52;1.02;;;15.10;58.70;;;;;;5050871;28;20225;-69
2024/02/09 05:58:52;;;;;;;1.55;1.35;;;15.10;58.70;;;;;;5051444;28;20230;-70
2024/02/09 06:01:19;;;;;;;1.33;0.95;;;15.10;58.60;;;;;;5051351;28;20277;-70
2024/02/09 06:03:45;;;;;;;1.20;1.10;;;15.20;58.60;;;;;;5051195;28;20550;-70
2024/02/09 06:06:12;;;;;;;2.45;1.48;;;15.20;58.60;;;;;;5051685;28;20175;-71
2024/02/09 06:08:40;;;;;;;2.20;1.10;;;15.20;58.60;;;;;;5051439;28;20183;-71
2024/02/09 06:11:06;;;;;;;2.00;1.10;;;15.30;58.80;;;;;;5050886;28;20221;-70
2024/02/09 06:13:31;;;;;;;1.60;1.30;;;15.40;58.80;;;;;;5051183;28;20547;-69
2024/02/09 06:16:00;;;;;;;1.02;1.00;;;15.40;58.70;;;;;;5051379;28;20340;-70
2024/02/09 06:18:26;;;;;;;0.70;0.70;;;15.40;58.60;;;;;;5050335;28;20209;-69
2024/02/09 06:20:53;;;;;;;1.40;1.30;;;15.50;58.70;;;;;;5051365;28;20634;-70
2024/02/09 06:23:20;;;;;;;1.45;1.00;;;15.60;58.50;;;;;;5050999;28;20646;-70
2024/02/09 06:25:49;;;;;;;2.00;1.20;;;15.60;58.50;;;;;;5049426;28;20646;-69
2024/02/09 06:28:14;;;;;;;1.30;1.13;;;15.60;58.40;;;;;;5051524;28;20183;-69
2024/02/09 06:30:40;;;;;;;1.75;1.13;;;15.60;58.40;;;;;;5052016;28;20209;-69
2024/02/09 06:33:06;;;;;;;1.65;1.23;;;15.60;58.40;;;;;;5055176;28;20171;-70
2024/02/09 06:35:33;;;;;;;1.40;1.02;;;15.60;58.40;;;;;;5054564;28;20618;-69
2024/02/09 06:37:58;;;;;;;1.10;0.88;;;15.60;58.40;;;;;;5054292;28;20257;-70
2024/02/09 06:40:24;;;;;;;1.20;1.10;;;15.50;58.40;;;;;;5054600;28;20258;-70
2024/02/09 06:42:50;;;;;;;1.50;1.17;;;15.50;58.50;;;;;;5054669;28;20642;-70
2024/02/09 06:45:16;;;;;;;1.30;1.13;;;15.50;58.50;;;;;;5054340;28;20262;-70
2024/02/09 06:47:42;;;;;;;0.93;0.70;;;15.50;58.60;;;;;;5054815;28;20189;-69
2024/02/09 06:50:10;;;;;;;1.10;1.00;;;15.60;58.50;;;;;;5054802;28;20175;-70
2024/02/09 06:52:37;;;;;;;1.35;1.10;;;15.70;58.50;;;;;;5053569;28;20183;-69
2024/02/09 06:55:07;;;;;;;1.48;0.95;;;15.80;58.50;;;;;;5054540;28;20186;-71
2024/02/09 06:57:33;;;;;;;1.25;1.15;;;15.90;58.30;;;;;;5054001;28;20234;-70
2024/02/09 06:59:59;;;;;;;1.75;1.10;;;16.10;58.00;;;;;;5053818;28;20233;-69
2024/02/09 07:02:24;;;;;;;0.90;0.90;;;16.20;57.80;;;;;;5054275;28;20187;-70
2024/02/09 07:05:00;;;;;;;3.38;1.05;;;16.40;57.70;;;;;;5054477;28;20167;-71
2024/02/09 07:07:25;;;;;;;1.27;0.90;;;16.50;57.40;;;;;;5053389;28;20174;-71
2024/02/09 07:09:51;;;;;;;1.63;0.80;;;16.70;57.30;;;;;;5054172;28;20189;-71
2024/02/09 07:12:17;;;;;;;1.02;0.65;;;16.80;57.10;;;;;;5054030;28;20175;-70
2024/02/09 07:14:44;;;;;;;0.90;0.80;;;16.90;57.00;;;;;;5053596;28;20240;-70
2024/02/09 07:17:09;;;;;;;1.65;0.80;;;16.90;56.80;;;;;;5054060;28;20685;-69
2024/02/09 07:19:35;;;;;;;0.77;0.77;;;17.00;56.70;;;;;;5053966;28;20262;-69
2024/02/09 07:22:01;;;;;;;1.40;0.90;;;17.10;56.50;;;;;;5053592;28;20205;-71
2024/02/09 07:24:27;;;;;;;1.35;0.95;;;17.10;56.30;;;;;;5053796;28;20262;-70
2024/02/09 07:26:52;;;;;;;1.00;0.80;;;17.20;56.20;;;;;;5053203;28;20202;-70
2024/02/09 07:29:18;;;;;;;0.82;0.80;;;17.20;56.20;;;;;;5053926;28;20167;-70
2024/02/09 07:31:45;;;;;;;0.90;0.80;;;17.30;56.20;;;;;;5054218;28;20175;-69
2024/02/09 07:34:14;;;;;;;0.75;0.75;;;17.20;56.20;;;;;;5053272;28;20230;-70
2024/02/09 07:36:40;;;;;;;0.80;0.80;;;17.20;56.20;;;;;;5053582;28;20762;-70
2024/02/09 07:39:07;;;;;;;0.90;0.80;;;17.20;56.30;;;;;;5053441;28;20179;-70
2024/02/09 07:41:33;;;;;;;1.17;0.70;;;17.20;56.30;;;;;;5051944;28;20709;-70
2024/02/09 07:44:00;;;;;;;1.85;0.90;;;17.20;56.40;;;;;;5053830;28;20259;-69
2024/02/09 07:46:26;;;;;;;1.23;0.82;;;17.20;56.50;;;;;;5053560;28;20183;-69
2024/02/09 07:48:51;;;;;;;1.77;1.30;;;17.20;56.40;;;;;;5053133;28;20179;-69
2024/02/09 07:51:20;;;;;;;1.00;0.80;;;17.10;56.50;;;;;;5053286;28;20183;-69
2024/02/09 07:53:52;;;;;;;1.35;1.25;;;17.20;56.50;;;;;;5053501;28;20638;-69
2024/02/09 07:56:23;;;;;;;1.23;0.93;;;17.20;56.50;;;;;;5052579;28;20223;-69
2024/02/09 07:58:50;;;;;;;1.20;0.80;;;17.20;56.50;;;;;;5053247;28;20234;-70
2024/02/09 08:01:16;;;;;;;1.00;0.90;;;17.10;56.60;;;;;;5053488;28;20179;-70
2024/02/09 08:03:42;;;;;;;1.00;0.88;;;17.20;56.70;;;;;;5052584;28;20171;-71
2024/02/09 08:06:07;;;;;;;1.70;0.88;;;17.20;56.70;;;;;;5053073;28;20179;-70
2024/02/09 08:08:33;;;;;;;1.58;1.02;;;17.10;56.70;;;;;;5052822;28;20167;-70
2024/02/09 08:10:59;;;;;;;0.85;0.82;;;17.20;56.60;;;;;;5052605;28;20171;-70
2024/02/09 08:13:24;;;;;;;1.35;0.73;;;17.20;56.60;;;;;;5052960;28;20262;-69
2024/02/09 08:15:51;;;;;;;0.75;0.75;;;17.20;56.70;;;;;;5053016;28;20290;-71
2024/02/09 08:18:17;;;;;;;0.80;0.80;;;17.20;56.60;;;;;;5052271;28;20198;-69
2024/02/09 08:20:42;;;;;;;0.98;0.60;;;17.20;57.20;;;;;;5052900;28;20198;-69
2024/02/09 08:23:08;;;;;;;1.95;1.00;;;17.30;56.60;;;;;;5052124;28;20179;-70
2024/02/09 08:25:33;;;;;;;0.93;0.82;;;17.30;56.60;;;;;;5052667;28;20171;-69
2024/02/09 08:28:00;;;;;;;1.30;0.70;;;17.30;56.60;;;;;;5052689;28;20183;-70
2024/02/09 08:30:26;;;;;;;0.63;0.63;;;17.20;56.60;;;;;;5051802;28;20240;-69
2024/02/09 08:32:53;;;;;;;1.08;0.98;;;17.20;56.70;;;;;;5052760;28;20180;-70
2024/02/09 08:35:19;;;;;;;0.90;0.80;;;17.20;56.60;;;;;;5052283;28;20642;-70
2024/02/09 08:37:45;;;;;;;1.17;0.98;;;17.20;56.60;;;;;;5051916;28;20179;-70
2024/02/09 08:40:10;;;;;;;0.68;0.68;;;17.20;56.70;;;;;;5052859;28;20163;-70
2024/02/09 08:42:36;;;;;;;1.40;0.80;;;17.20;56.80;;;;;;5052362;28;20279;-70
2024/02/09 08:45:01;;;;;;;0.95;0.93;;;17.10;56.90;;;;;;5051918;28;20568;-70
2024/02/09 08:47:28;;;;;;;1.15;0.77;;;17.10;57.00;;;;;;5052173;28;21041;-69
2024/02/09 08:49:54;;;;;;;1.13;1.13;;;17.10;57.10;;;;;;5052459;28;20205;-69
2024/02/09 08:52:19;;;;;;;2.05;0.80;;;17.10;57.10;;;;;;5051592;28;20270;-69
2024/02/09 08:54:45;;;;;;;1.13;0.75;;;17.10;57.10;;;;;;5052465;28;20179;-69
2024/02/09 08:57:13;;;;;;;1.67;0.85;;;17.10;57.10;;;;;;5052306;28;20274;-70
2024/02/09 08:59:40;;;;;;;1.13;0.70;;;17.10;57.20;;;;;;5051179;28;20567;-69
2024/02/09 09:02:06;;;;;;;0.98;0.93;;;17.10;57.20;;;;;;5052361;28;20179;-70
2024/02/09 09:04:33;;;;;;;2.20;1.08;;;17.10;57.20;;;;;;5051890;28;20175;-70
2024/02/09 09:06:59;;;;;;;1.67;1.00;;;17.10;57.20;;;;;;5051694;28;20229;-71
2024/02/09 09:09:26;;;;;;;2.20;1.23;;;17.10;57.30;;;;;;5051969;28;20167;-70
2024/02/09 09:11:55;;;;;;;1.00;0.82;;;17.20;57.20;;;;;;5052260;28;20265;-72
2024/02/09 09:14:20;;;;;;;1.33;1.10;;;17.20;57.10;;;;;;5051112;28;20218;-73
2024/02/09 09:16:46;;;;;;;1.48;1.08;;;17.20;57.30;;;;;;5052023;28;20242;-68
2024/02/09 09:19:12;;;;;;;1.08;0.85;;;17.20;57.30;;;;;;5051865;28;20212;-73
2024/02/09 09:21:38;;;;;;;2.78;1.05;;;17.30;57.30;;;;;;5051009;28;20626;-73
2024/02/09 09:24:05;;;;;;;1.95;1.20;;;17.30;57.30;;;;;;5051836;28;20178;-74
2024/02/09 09:26:31;;;;;;;3.13;1.33;;;17.40;57.30;;;;;;5050649;28;20178;-74
2024/02/09 09:28:59;;;;;;;3.10;1.55;;;17.40;57.40;;;;;;5051408;28;20503;-74
2024/02/09 09:31:29;;;;;;;1.15;0.95;;;17.50;57.30;;;;;;5050991;28;20182;-74
2024/02/09 09:33:58;;;;;;;2.58;1.08;;;17.50;57.50;;;;;;5050904;28;20171;-74
2024/02/09 09:36:23;;;;;;;2.45;1.20;;;17.50;57.40;;;;;;5051668;28;20222;-74
2024/02/09 09:38:49;;;;;;;1.23;1.13;;;17.50;57.60;;;;;;5052009;28;20168;-75
2024/02/09 09:41:18;;;;;;;1.17;0.80;;;17.40;57.80;;;;;;5051175;28;20175;-74
2024/02/09 09:43:44;;;;;;;4.65;1.17;;;17.30;57.80;;;;;;5050482;28;20598;-74
2024/02/09 09:46:09;;;;;;;2.20;1.20;;;17.30;58.00;;;;;;5059174;28;20170;-74
2024/02/09 09:48:37;;;;;;;1.45;1.02;;;17.20;58.10;;;;;;5063751;28;20178;-74
2024/02/09 09:51:03;;;;;;;2.33;1.13;;;17.00;58.30;;;;;;5051958;28;20187;-75
2024/02/09 09:53:39;;;;;;;1.70;1.10;;;17.00;58.30;;;;;;5062883;28;20189;-75
2024/02/09 09:56:07;;;;;;;2.63;1.45;;;16.90;58.50;;;;;;5069719;28;20201;-74
2024/02/09 09:58:36;;;;;;;1.90;1.08;;;16.90;58.70;;;;;;5070965;28;20234;-73
2024/02/09 10:01:06;;;;;;;2.83;1.15;;;16.80;58.70;;;;;;5068405;28;20167;-73
2024/02/09 10:03:32;;;;;;;2.15;1.13;;;16.80;58.70;;;;;;5050559;28;20668;-73
2024/02/09 10:05:58;;;;;;;2.67;1.35;;;16.70;58.80;;;;;;5053915;28;20207;-72
2024/02/09 10:08:23;;;;;;;3.55;1.45;;;16.70;58.90;;;;;;5055105;28;20175;-73
2024/02/09 10:10:50;;;;;;;2.45;1.00;;;16.70;59.00;;;;;;5053599;28;20186;-74
2024/02/09 10:13:16;;;;;;;3.17;1.17;;;16.60;58.90;;;;;;5054350;28;20186;-73
2024/02/09 10:15:41;;;;;;;2.10;1.10;;;16.60;58.90;;;;;;5054744;28;20576;-73
2024/02/09 10:18:10;;;;;;;2.90;1.23;;;16.60;59.10;;;;;;5058759;28;20254;-74
2024/02/09 10:20:37;;;;;;;1.58;1.25;;;16.60;59.00;;;;;;5073570;28;20205;-74
2024/02/09 10:23:03;;;;;;;1.95;1.25;;;16.60;59.10;;;;;;5074573;28;20204;-74
2024/02/09 10:25:31;;;;;;;3.55;1.45;;;16.60;59.10;;;;;;5074742;28;20202;-74
2024/02/09 10:27:57;;;;;;;2.30;1.00;;;16.60;59.20;;;;;;5075069;28;20187;-74
2024/02/09 10:30:24;;;;;;;1.10;1.00;;;16.70;59.50;;;;;;5074154;28;20224;-74
2024/02/09 10:32:49;;;;;;;1.98;1.02;;;16.80;59.60;;;;;;5075145;28;20182;-74
2024/02/09 10:35:15;;;;;;;1.88;1.15;;;16.70;59.20;;;;;;5074997;28;20184;-74
2024/02/09 10:37:42;;;;;;;2.20;1.30;;;16.70;59.20;;;;;;5073615;28;20217;-74
2024/02/09 10:40:08;;;;;;;3.17;1.20;;;16.70;59.20;;;;;;5074881;28;20185;-74
2024/02/09 10:42:33;;;;;;;2.20;1.10;;;16.70;59.20;;;;;;5073394;28;20178;-74
2024/02/09 10:44:59;;;;;;;1.48;0.98;;;16.70;59.20;;;;;;5072986;28;20177;-74
2024/02/09 10:47:26;;;;;;;2.60;1.38;;;16.60;59.20;;;;;;5073485;28;20290;-74
2024/02/09 10:49:55;;;;;;;1.40;0.98;;;16.60;59.20;;;;;;5073587;28;20174;-74
2024/02/09 10:52:21;;;;;;;2.90;1.25;;;16.60;59.20;;;;;;5068123;28;20175;-74
2024/02/09 10:54:50;;;;;;;2.38;1.10;;;16.60;59.30;;;;;;5053396;28;20181;-74
2024/02/09 10:57:16;;;;;;;1.67;1.20;;;16.50;59.30;;;;;;5053034;28;20239;-75
2024/02/09 10:59:49;;;;;;;1.95;1.23;;;16.50;59.30;;;;;;5052395;28;20201;-73
2024/02/09 11:02:15;;;;;;;1.77;1.13;;;16.50;59.40;;;;;;5053535;28;20194;-74
2024/02/09 11:04:41;;;;;;;2.65;1.05;;;16.50;59.40;;;;;;5036304;28;20247;-74
2024/02/09 11:07:06;;;;;;;1.60;1.40;;;16.50;59.30;;;;;;5036060;28;20629;-73
2024/02/09 11:09:32;;;;;;;1.65;1.10;;;16.60;59.30;;;;;;5052692;28;20705;-74
2024/02/09 11:12:04;;;;;;;3.47;1.17;;;16.50;59.40;;;;;;5035727;28;20262;-74
2024/02/09 11:14:32;;;;;;;2.33;1.35;;;16.60;59.30;;;;;;5054157;28;20257;-74
2024/02/09 11:17:06;;;;;;;2.90;1.17;;;16.50;59.30;;;;;;5053061;28;20242;-74
2024/02/09 11:19:38;;;;;;;2.47;1.67;;;16.60;59.40;;;;;;5053344;28;20185;-74
2024/02/09 11:22:04;;;;;;;2.03;1.60;;;16.50;59.40;;;;;;5052999;28;20182;-73
2024/02/09 11:24:33;;;;;;;1.40;1.30;;;16.50;59.40;;;;;;5054013;28;20544;-73
2024/02/09 11:26:59;;;;;;;2.22;1.15;;;16.50;59.40;;;;;;5053550;28;20202;-74
2024/02/09 11:29:25;;;;;;;2.15;1.52;;;16.40;59.50;;;;;;5053832;28;20658;-74
2024/02/09 11:31:52;;;;;;;2.38;1.35;;;16.40;59.50;;;;;;5053973;28;20634;-74
2024/02/09 11:34:21;;;;;;;2.63;1.27;;;16.40;59.60;;;;;;5052949;28;20179;-74
2024/02/09 11:36:46;;;;;;;1.13;1.00;;;16.40;59.60;;;;;;5053707;28;20210;-74
2024/02/09 11:39:12;;;;;;;1.90;1.05;;;16.40;59.60;;;;;;5053945;28;20178;-74
2024/02/09 11:41:39;;;;;;;1.67;1.08;;;16.40;59.60;;;;;;5052926;28;20175;-74
2024/02/09 11:44:04;;;;;;;5.15;1.23;;;16.40;59.60;;;;;;5053848;28;20171;-74
2024/02/09 11:46:30;;;;;;;1.48;1.30;;;16.40;59.60;;;;;;5051973;28;20202;-74
2024/02/09 11:48:59;;;;;;;2.78;1.40;;;16.40;59.50;;;;;;5051773;28;20177;-74
2024/02/09 11:51:24;;;;;;;1.08;0.98;;;16.40;59.50;;;;;;5053177;28;20167;-73
2024/02/09 11:53:51;;;;;;;2.28;1.20;;;16.40;59.60;;;;;;5068855;28;20205;-73
2024/02/09 11:56:20;;;;;;;1.83;1.00;;;16.40;59.60;;;;;;5072716;28;20218;-74
2024/02/09 11:58:49;;;;;;;2.20;1.13;;;16.40;59.60;;;;;;5073114;28;20226;-73
2024/02/09 12:01:15;;;;;;;2.22;1.08;;;16.40;59.60;;;;;;5073012;28;20227;-73
2024/02/09 12:03:40;;;;;;;1.27;1.10;;;16.30;59.70;;;;;;5071980;28;20513;-73
2024/02/09 12:06:06;;;;;;;1.33;0.90;;;16.40;59.70;;;;;;5071957;28;20219;-73
2024/02/09 12:08:32;;;;;;;1.83;1.10;;;16.30;59.70;;;;;;5071332;28;20175;-74
2024/02/09 12:10:57;;;;;;;1.52;1.20;;;16.30;59.70;;;;;;5071905;28;20178;-73
2024/02/09 12:13:24;;;;;;;1.90;0.90;;;16.30;59.70;;;;;;5073151;28;20224;-74
2024/02/09 12:15:50;;;;;;;1.48;1.20;;;16.30;59.70;;;;;;5072182;28;20210;-73
2024/02/09 12:18:15;;;;;;;1.40;1.13;;;16.30;59.70;;;;;;5055016;28;20647;-73
2024/02/09 12:20:43;;;;;;;2.40;1.27;;;16.30;59.70;;;;;;5072454;28;20163;-74
2024/02/09 12:23:09;;;;;;;2.00;1.27;;;16.30;59.60;;;;;;5072279;28;20253;-74
2024/02/09 12:25:37;;;;;;;2.03;1.30;;;16.30;59.60;;;;;;5072478;28;20224;-73
2024/02/09 12:28:04;;;;;;;2.17;1.10;;;16.30;59.70;;;;;;5072778;28;20280;-74
2024/02/09 12:30:29;;;;;;;1.45;1.20;;;16.30;59.60;;;;;;5071680;28;20182;-74
2024/02/09 12:32:59;;;;;;;1.13;1.00;;;16.30;59.60;;;;;;5072674;28;20178;-75
2024/02/09 12:35:28;;;;;;;2.42;1.10;;;16.30;59.60;;;;;;5072244;28;20589;-74
2024/02/09 12:37:57;;;;;;;2.13;1.17;;;16.30;59.60;;;;;;5072116;28;20240;-74
2024/02/09 12:40:25;;;;;;;1.30;1.10;;;16.30;59.70;;;;;;5072397;28;20174;-74
2024/02/09 12:42:53;;;;;;;1.80;1.27;;;16.30;59.70;;;;;;5071237;28;20174;-74
2024/02/09 12:45:19;;;;;;;1.20;1.10;;;16.30;59.70;;;;;;5071450;28;20182;-73
2024/02/09 12:47:46;;;;;;;4.13;1.02;;;16.30;59.70;;;;;;5072384;28;20262;-74
2024/02/09 12:50:12;;;;;;;1.67;1.33;;;16.30;59.60;;;;;;5072633;28;20182;-74
2024/02/09 12:52:39;;;;;;;1.92;1.20;;;16.30;59.60;;;;;;5064972;28;20177;-74
2024/02/09 12:55:05;;;;;;;2.42;1.05;;;16.30;59.70;;;;;;5051202;28;20626;-74
2024/02/09 12:57:30;;;;;;;1.52;0.90;;;16.30;59.70;;;;;;5051241;28;20238;-73
2024/02/09 12:59:56;;;;;;;2.72;1.10;;;16.30;59.70;;;;;;5052283;28;20163;-74
2024/02/09 13:02:22;;;;;;;1.05;0.95;;;16.30;59.70;;;;;;5051821;28;20179;-73
2024/02/09 13:04:48;;;;;;;2.08;1.20;;;16.20;59.70;;;;;;5050595;28;20171;-73
2024/02/09 13:07:14;;;;;;;1.73;1.20;;;16.20;59.70;;;;;;5052027;28;20179;-73
2024/02/09 13:09:39;;;;;;;1.55;0.93;;;16.20;59.70;;;;;;5051885;28;20212;-73
2024/02/09 13:12:06;;;;;;;1.42;1.13;;;16.20;59.80;;;;;;5051354;28;20190;-73
2024/02/09 13:14:34;;;;;;;1.83;1.17;;;16.20;59.80;;;;;;5051719;28;20179;-72
2024/02/09 13:17:00;;;;;;;1.30;1.20;;;16.20;59.80;;;;;;5051995;28;20215;-73
2024/02/09 13:19:26;;;;;;;1.30;1.00;;;16.20;59.70;;;;;;5051124;28;20321;-72
2024/02/09 13:22:04;;;;;;;1.95;1.35;;;16.20;59.80;;;;;;5052099;28;20171;-73
2024/02/09 13:24:29;;;;;;;1.27;1.00;;;16.20;59.80;;;;;;5051947;28;20166;-72
2024/02/09 13:26:55;;;;;;;2.15;1.35;;;16.20;59.80;;;;;;5051446;28;20175;-72
2024/02/09 13:29:26;;;;;;;1.33;1.00;;;16.20;59.70;;;;;;5051626;28;20175;-73
2024/02/09 13:31:54;;;;;;;1.08;0.98;;;16.20;59.80;;;;;;5051585;28;20179;-74
2024/02/09 13:34:21;;;;;;;1.17;1.08;;;16.20;59.70;;;;;;5049779;28;20178;-73
2024/02/09 13:36:47;;;;;;;1.67;1.20;;;16.20;59.70;;;;;;5051631;28;20580;-74
2024/02/09 13:39:13;;;;;;;2.15;1.15;;;16.20;59.70;;;;;;5051844;28;20664;-74
2024/02/09 13:41:40;;;;;;;2.67;1.10;;;16.20;59.70;;;;;;5054210;28;20179;-74
2024/02/09 13:44:06;;;;;;;1.42;1.05;;;16.20;59.70;;;;;;5055789;28;20167;-75
2024/02/09 13:46:31;;;;;;;1.15;1.00;;;16.20;59.80;;;;;;5055854;28;20289;-74
2024/02/09 13:48:57;;;;;;;1.23;0.90;;;16.20;59.90;;;;;;5055249;28;20209;-74
2024/02/09 13:51:25;;;;;;;2.55;1.10;;;16.20;59.80;;;;;;5055550;28;20193;-75
2024/02/09 13:53:51;;;;;;;1.30;1.20;;;16.20;59.90;;;;;;5071722;28;20287;-74
2024/02/09 13:56:16;;;;;;;1.35;0.98;;;16.20;59.90;;;;;;5075307;28;20320;-75
2024/02/09 13:58:45;;;;;;;1.95;1.30;;;16.20;59.90;;;;;;5075439;28;20271;-74
2024/02/09 14:01:11;;;;;;;0.80;0.80;;;16.20;59.90;;;;;;5075110;28;20185;-74
2024/02/09 14:03:37;;;;;;;3.92;1.52;;;16.20;59.90;;;;;;5075341;28;20182;-74
2024/02/09 14:06:03;;;;;;;2.13;1.02;;;16.20;59.90;;;;;;5075571;28;20174;-74
2024/02/09 14:08:32;;;;;;;1.55;1.00;;;16.20;59.80;;;;;;5074457;28;20178;-74
2024/02/09 14:10:58;;;;;;;1.95;1.27;;;16.20;59.80;;;;;;5075326;28;20182;-74
2024/02/09 14:13:23;;;;;;;2.20;1.23;;;16.20;59.80;;;;;;5074979;28;20258;-74
2024/02/09 14:15:50;;;;;;;2.33;1.10;;;16.20;59.80;;;;;;5074588;28;20210;-74
2024/02/09 14:18:17;;;;;;;1.33;1.00;;;16.20;59.80;;;;;;5075458;28;20175;-75
2024/02/09 14:20:46;;;;;;;1.27;1.02;;;16.20;59.90;;;;;;5075244;28;20178;-73
2024/02/09 14:23:12;;;;;;;1.60;0.98;;;16.20;59.90;;;;;;5074559;28;20170;-74
2024/02/09 14:25:38;;;;;;;2.25;1.00;;;16.20;60.00;;;;;;5074902;28;20182;-74
2024/02/09 14:28:04;;;;;;;2.35;1.10;;;16.10;60.00;;;;;;5075436;28;20189;-74
2024/02/09 14:30:29;;;;;;;1.45;0.90;;;16.10;60.00;;;;;;5074237;28;20182;-75
2024/02/09 14:32:55;;;;;;;0.98;0.82;;;16.10;60.00;;;;;;5075085;28;20637;-72
2024/02/09 14:35:20;;;;;;;1.23;1.13;;;16.20;60.10;;;;;;5074889;28;20261;-75